Time;durP1;ratioP1;P1;durP2;ratioP2;P2;SDS_P1;SDS_P2;PMS_P1;PMS_P2;Temp;Humidity;BMP_temperature;BMP_pressure;BME280_temperature;BME280_humidity;BME280_pressure;Samples;Min_cycle;Max_cycle;Signal;HPM_P1;HPM_P2
2021/08/13 00:01:27;;;;;;;8.63;7.37;;;;;;;20.35;90.87;98513.47;5076654;28;20211;-65
2021/08/13 00:03:54;;;;;;;8.90;7.83;;;;;;;20.23;92.38;98510.16;5076668;28;20211;-65
2021/08/13 00:06:20;;;;;;;8.17;7.27;;;;;;;20.16;93.49;98511.78;5076267;28;20207;-64
2021/08/13 00:08:47;;;;;;;8.47;7.20;;;;;;;20.15;94.14;98512.81;5076253;28;20211;-64
2021/08/13 00:11:13;;;;;;;8.90;7.03;;;;;;;20.12;94.55;98509.59;5076103;28;20207;-64
2021/08/13 00:13:39;;;;;;;8.20;7.40;;;;;;;20.03;95.26;98508.66;5075969;28;20239;-64
2021/08/13 00:16:06;;;;;;;9.17;7.50;;;;;;;19.94;96.31;98504.19;5076105;28;20203;-64
2021/08/13 00:18:34;;;;;;;9.90;7.90;;;;;;;19.84;97.29;98506.16;5075983;28;20295;-64
2021/08/13 00:21:00;;;;;;;8.50;7.30;;;;;;;19.79;98.17;98496.84;5076229;28;20207;-64
2021/08/13 00:23:27;;;;;;;9.10;7.50;;;;;;;19.73;99.00;98506.38;5074347;28;20234;-65
2021/08/13 00:25:53;;;;;;;9.20;7.63;;;;;;;19.68;99.79;98505.16;5076211;28;20211;-65
2021/08/13 00:28:19;;;;;;;11.27;7.90;;;;;;;19.66;100.00;98510.66;5075882;28;20673;-64
2021/08/13 00:30:46;;;;;;;10.87;8.47;;;;;;;19.65;100.00;98505.47;5075775;28;20676;-64
2021/08/13 00:33:12;;;;;;;9.63;7.90;;;;;;;19.64;100.00;98515.31;5075446;28;20684;-64
2021/08/13 00:35:40;;;;;;;9.43;8.43;;;;;;;19.67;99.69;98509.66;5074814;28;20246;-64
2021/08/13 00:38:07;;;;;;;9.07;7.77;;;;;;;19.69;99.22;98521.06;5074831;28;20211;-65
2021/08/13 00:40:33;;;;;;;8.23;7.43;;;;;;;19.72;99.37;98520.78;5074757;28;20211;-64
2021/08/13 00:42:59;;;;;;;9.30;8.10;;;;;;;19.76;99.41;98524.81;5074878;28;20207;-64
2021/08/13 00:45:26;;;;;;;9.10;8.20;;;;;;;19.78;98.79;98528.22;5074736;28;20203;-64
2021/08/13 00:47:52;;;;;;;10.43;8.50;;;;;;;19.82;98.47;98523.38;5074332;28;20599;-64
2021/08/13 00:50:19;;;;;;;10.33;8.23;;;;;;;19.78;98.74;98517.50;5072980;28;20572;-64
2021/08/13 00:52:47;;;;;;;10.30;9.20;;;;;;;19.76;98.87;98508.72;5073872;28;20217;-64
2021/08/13 00:55:13;;;;;;;10.63;9.30;;;;;;;19.75;99.99;98523.16;5074125;28;20732;-64
2021/08/13 00:57:40;;;;;;;9.80;8.80;;;;;;;19.72;100.00;98523.47;5074441;28;20208;-64
2021/08/13 01:00:08;;;;;;;9.73;8.57;;;;;;;19.67;100.00;98519.53;5073622;28;20222;-64
2021/08/13 01:02:34;;;;;;;9.73;8.73;;;;;;;19.63;100.00;98526.22;5057593;28;20215;-64
2021/08/13 01:05:00;;;;;;;9.70;8.60;;;;;;;19.62;100.00;98522.69;5066978;28;20212;-64
2021/08/13 01:07:27;;;;;;;10.97;8.77;;;;;;;19.63;100.00;98519.00;5065284;28;20214;-64
2021/08/13 01:09:55;;;;;;;10.40;9.30;;;;;;;19.63;100.00;98520.88;5058915;28;20216;-64
2021/08/13 01:12:31;;;;;;;10.50;9.40;;;;;;;19.61;100.00;98521.00;5073233;28;20565;-64
2021/08/13 01:15:04;;;;;;;11.10;9.60;;;;;;;19.62;100.00;98520.00;5073777;28;20227;-64
2021/08/13 01:17:38;;;;;;;11.97;10.13;;;;;;;19.58;100.00;98518.63;5072804;28;20203;-64
2021/08/13 01:20:10;;;;;;;10.70;9.60;;;;;;;19.56;100.00;98522.47;5074006;28;20208;-64
2021/08/13 01:22:45;;;;;;;12.10;10.20;;;;;;;19.52;100.00;98516.53;5074106;28;20211;-64
2021/08/13 01:25:19;;;;;;;11.90;10.40;;;;;;;19.49;100.00;98516.88;5074171;28;20207;-65
2021/08/13 01:27:48;;;;;;;12.87;9.87;;;;;;;19.48;100.00;98525.91;5073879;28;20200;-64
2021/08/13 01:30:17;;;;;;;10.97;9.60;;;;;;;19.48;100.00;98531.28;5073981;28;20289;-64
2021/08/13 01:32:48;;;;;;;13.47;10.87;;;;;;;19.52;100.00;98524.59;5074004;28;20214;-64
2021/08/13 01:35:20;;;;;;;12.20;10.77;;;;;;;19.53;100.00;98525.44;5037293;28;1059075;-64
2021/08/13 01:37:50;;;;;;;13.33;10.70;;;;;;;19.54;100.00;98530.66;5074587;28;20237;-64
2021/08/13 01:40:18;;;;;;;13.17;10.70;;;;;;;19.53;100.00;98536.16;5074816;28;20207;-64
2021/08/13 01:42:47;;;;;;;11.00;9.90;;;;;;;19.53;100.00;98537.03;5073068;28;20215;-64
2021/08/13 01:45:18;;;;;;;11.93;10.30;;;;;;;19.54;100.00;98541.38;5074789;28;20207;-64
2021/08/13 01:47:48;;;;;;;14.30;11.13;;;;;;;19.47;100.00;98534.94;5074417;28;20705;-64
2021/08/13 01:50:14;;;;;;;12.67;9.93;;;;;;;19.42;100.00;98537.22;5074315;28;20218;-64
2021/08/13 01:52:42;;;;;;;13.70;11.07;;;;;;;19.34;100.00;98550.56;5074256;28;20207;-64
2021/08/13 01:55:11;;;;;;;13.60;10.40;;;;;;;19.27;100.00;98548.63;5074459;28;20235;-64
2021/08/13 01:57:37;;;;;;;14.37;11.10;;;;;;;19.21;100.00;98547.38;5074525;28;20222;-64
2021/08/13 02:00:05;;;;;;;11.73;10.07;;;;;;;19.17;100.00;98542.44;5074522;28;20590;-64
2021/08/13 02:02:32;;;;;;;12.53;10.60;;;;;;;19.08;100.00;98538.81;5074376;28;20225;-64
2021/08/13 02:05:01;;;;;;;12.43;9.80;;;;;;;19.06;100.00;98546.16;5073313;28;20219;-64
2021/08/13 02:07:29;;;;;;;11.10;9.40;;;;;;;19.03;100.00;98551.78;5072329;28;20215;-64
2021/08/13 02:09:56;;;;;;;12.37;10.27;;;;;;;19.02;100.00;98547.44;5074055;28;20208;-64
2021/08/13 02:12:22;;;;;;;10.90;9.73;;;;;;;19.03;100.00;98546.44;5074309;28;20551;-64
2021/08/13 02:14:49;;;;;;;11.37;9.83;;;;;;;19.07;100.00;98547.00;5073856;28;20241;-64
2021/08/13 02:17:20;;;;;;;12.47;10.20;;;;;;;19.11;100.00;98543.03;5074121;28;20219;-64
2021/08/13 02:19:54;;;;;;;12.53;10.23;;;;;;;19.14;100.00;98543.56;5074181;28;20212;-64
2021/08/13 02:22:22;;;;;;;13.40;10.40;;;;;;;19.24;100.00;98541.72;5073942;28;20207;-64
2021/08/13 02:24:48;;;;;;;11.10;9.97;;;;;;;19.31;100.00;98541.94;5073835;28;20207;-64
2021/08/13 02:27:15;;;;;;;12.60;10.03;;;;;;;19.29;100.00;98552.84;5073461;28;20222;-63
2021/08/13 02:29:41;;;;;;;11.03;9.77;;;;;;;19.11;100.00;98543.03;5073554;28;20219;-62
2021/08/13 02:32:08;;;;;;;12.27;10.97;;;;;;;18.99;100.00;98518.28;5073844;28;20223;-62
2021/08/13 02:34:35;;;;;;;12.67;11.10;;;;;;;18.92;100.00;98527.91;5071718;28;20242;-63
2021/08/13 02:37:06;;;;;;;14.50;11.70;;;;;;;18.85;100.00;98520.59;5073712;28;20212;-63
2021/08/13 02:39:40;;;;;;;13.47;11.37;;;;;;;18.80;100.00;98525.56;5073721;28;20571;-63
2021/08/13 02:42:12;;;;;;;12.33;11.03;;;;;;;18.74;100.00;98521.63;5073593;28;20557;-63
2021/08/13 02:44:42;;;;;;;14.37;11.80;;;;;;;18.75;100.00;98515.28;5073588;28;20569;-63
2021/08/13 02:47:11;;;;;;;13.33;11.33;;;;;;;18.74;100.00;98524.31;5073588;28;20208;-63
2021/08/13 02:49:45;;;;;;;14.40;12.10;;;;;;;18.72;100.00;98517.41;5073282;28;20669;-63
2021/08/13 02:52:17;;;;;;;14.30;12.20;;;;;;;18.68;100.00;98508.00;5073059;28;20233;-63
2021/08/13 02:54:46;;;;;;;14.07;11.20;;;;;;;18.68;100.00;98511.53;5073315;28;20227;-63
2021/08/13 02:57:14;;;;;;;14.07;11.20;;;;;;;18.71;100.00;98511.22;5073389;28;20207;-63
2021/08/13 02:59:42;;;;;;;12.77;10.53;;;;;;;18.83;100.00;98520.75;5071481;28;20207;-64
2021/08/13 03:02:09;;;;;;;14.43;11.23;;;;;;;19.00;100.00;98524.47;5073092;28;20203;-64
2021/08/13 03:04:38;;;;;;;13.03;10.63;;;;;;;19.15;100.00;98506.91;5073336;28;20207;-64
2021/08/13 03:07:04;;;;;;;11.63;10.43;;;;;;;19.24;100.00;98506.88;5073422;28;20218;-63
2021/08/13 03:09:33;;;;;;;11.97;10.37;;;;;;;19.32;100.00;98504.28;5072970;28;20222;-64
2021/08/13 03:12:02;;;;;;;11.33;10.10;;;;;;;19.39;100.00;98513.41;5073203;28;20230;-64
2021/08/13 03:14:29;;;;;;;12.90;10.57;;;;;;;19.47;100.00;98518.88;5072676;28;20712;-63
2021/08/13 03:16:56;;;;;;;10.90;9.83;;;;;;;19.54;100.00;98536.03;5072834;28;20207;-63
2021/08/13 03:19:24;;;;;;;10.93;9.83;;;;;;;19.65;100.00;98537.63;5073174;28;20226;-64
2021/08/13 03:21:51;;;;;;;12.53;10.83;;;;;;;19.79;100.00;98535.25;5072900;28;20215;-64
2021/08/13 03:24:18;;;;;;;12.97;10.43;;;;;;;19.86;100.00;98547.06;5072955;28;20215;-64
2021/08/13 03:26:45;;;;;;;12.30;10.13;;;;;;;19.89;100.00;98557.50;5071385;28;20208;-64
2021/08/13 03:29:13;;;;;;;13.40;11.10;;;;;;;19.78;100.00;98554.19;5073151;28;20216;-64
2021/08/13 03:31:43;;;;;;;13.87;9.97;;;;;;;19.68;100.00;98542.72;5072764;28;20219;-64
2021/08/13 03:34:10;;;;;;;12.87;11.03;;;;;;;19.59;100.00;98549.81;5072905;28;20708;-64
2021/08/13 03:36:38;;;;;;;11.93;10.47;;;;;;;19.48;100.00;98539.31;5072988;28;20242;-63
2021/08/13 03:39:06;;;;;;;11.27;10.03;;;;;;;19.44;100.00;98551.31;5072733;28;20675;-63
2021/08/13 03:41:32;;;;;;;13.47;9.60;;;;;;;19.41;100.00;98546.28;5073006;28;20222;-64
2021/08/13 03:43:59;;;;;;;10.57;9.47;;;;;;;19.44;100.00;98570.09;5072900;28;20217;-64
2021/08/13 03:46:27;;;;;;;11.73;9.20;;;;;;;19.49;100.00;98556.22;5072956;28;20217;-64
2021/08/13 03:48:53;;;;;;;10.93;9.43;;;;;;;19.48;100.00;98552.72;5072523;28;20703;-64
2021/08/13 03:51:20;;;;;;;10.97;9.27;;;;;;;19.46;100.00;98557.41;5071737;28;20203;-63
2021/08/13 03:53:47;;;;;;;10.23;9.13;;;;;;;19.47;100.00;98564.44;5072542;28;20214;-63
2021/08/13 03:56:14;;;;;;;9.70;8.70;;;;;;;19.53;100.00;98565.66;5072457;28;20705;-64
2021/08/13 03:58:41;;;;;;;12.90;10.30;;;;;;;19.53;100.00;98560.31;5072554;28;20689;-64
2021/08/13 04:01:07;;;;;;;11.00;9.90;;;;;;;19.58;100.00;98574.09;5072840;28;20247;-64
2021/08/13 04:03:36;;;;;;;11.80;9.73;;;;;;;19.64;100.00;98577.00;5072482;28;20254;-64
2021/08/13 04:06:02;;;;;;;10.50;9.10;;;;;;;19.64;100.00;98577.00;5072802;28;20585;-63
2021/08/13 04:08:29;;;;;;;10.20;9.10;;;;;;;19.61;100.00;98589.88;5072997;28;20208;-64
2021/08/13 04:10:55;;;;;;;10.37;9.17;;;;;;;19.62;100.00;98583.53;5072950;28;20219;-64
2021/08/13 04:13:22;;;;;;;10.83;9.73;;;;;;;19.59;100.00;98578.47;5072602;28;20203;-63
2021/08/13 04:15:48;;;;;;;10.10;9.03;;;;;;;19.57;100.00;98575.94;5072540;28;20624;-64
2021/08/13 04:18:14;;;;;;;10.50;9.40;;;;;;;19.54;100.00;98580.75;5070565;28;20208;-63
2021/08/13 04:20:42;;;;;;;9.80;8.80;;;;;;;19.50;100.00;98582.06;5072583;28;20219;-63
2021/08/13 04:23:09;;;;;;;10.83;9.70;;;;;;;19.48;100.00;98574.16;5072594;28;20211;-64
2021/08/13 04:25:35;;;;;;;11.10;9.60;;;;;;;19.41;100.00;98570.41;5072407;28;20221;-64
2021/08/13 04:28:02;;;;;;;10.20;9.20;;;;;;;19.42;100.00;98568.56;5075128;28;20215;-63
2021/08/13 04:30:28;;;;;;;10.23;9.23;;;;;;;19.39;100.00;98569.69;5075867;28;20222;-64
2021/08/13 04:32:55;;;;;;;10.53;8.70;;;;;;;19.39;100.00;98575.06;5075822;28;20211;-64
2021/08/13 04:35:21;;;;;;;10.77;9.50;;;;;;;19.41;100.00;98572.22;5076273;28;20692;-64
2021/08/13 04:37:49;;;;;;;11.67;9.77;;;;;;;19.49;100.00;98583.88;5075772;28;20207;-63
2021/08/13 04:40:16;;;;;;;11.13;9.93;;;;;;;19.56;100.00;98574.25;5076124;28;20218;-63
2021/08/13 04:42:42;;;;;;;10.23;9.13;;;;;;;19.56;100.00;98571.56;5075655;28;20208;-64
2021/08/13 04:45:10;;;;;;;11.47;10.07;;;;;;;19.60;100.00;98583.69;5074223;28;20212;-63
2021/08/13 04:47:36;;;;;;;10.73;9.60;;;;;;;19.62;100.00;98591.59;5075978;28;20215;-63
2021/08/13 04:50:03;;;;;;;11.67;10.40;;;;;;;19.60;100.00;98586.38;5075893;28;20226;-63
2021/08/13 04:52:30;;;;;;;12.20;9.70;;;;;;;19.61;100.00;98604.16;5075520;28;20215;-63
2021/08/13 04:54:58;;;;;;;12.13;9.80;;;;;;;19.62;100.00;98605.81;5075496;28;20603;-63
2021/08/13 04:57:24;;;;;;;10.60;9.50;;;;;;;19.61;100.00;98612.19;5075687;28;20210;-63
2021/08/13 04:59:51;;;;;;;10.93;9.83;;;;;;;19.60;100.00;98605.13;5075555;28;20215;-64
2021/08/13 05:02:21;;;;;;;11.13;9.90;;;;;;;19.48;100.00;98603.66;5075552;28;20215;-63
2021/08/13 05:04:47;;;;;;;11.33;10.13;;;;;;;19.36;100.00;98614.72;5075812;28;20207;-63
2021/08/13 05:07:14;;;;;;;11.73;10.53;;;;;;;19.34;100.00;98614.91;5075342;28;20216;-63
2021/08/13 05:09:40;;;;;;;13.13;10.83;;;;;;;19.22;100.00;98615.22;5073322;28;20222;-63
2021/08/13 05:12:08;;;;;;;11.17;9.97;;;;;;;19.11;100.00;98618.91;5075725;28;20214;-64
2021/08/13 05:14:35;;;;;;;11.60;10.40;;;;;;;19.02;100.00;98614.41;5075350;28;20198;-63
2021/08/13 05:17:01;;;;;;;11.47;10.27;;;;;;;19.01;100.00;98617.25;5075163;28;20237;-65
2021/08/13 05:19:28;;;;;;;10.77;9.67;;;;;;;19.06;100.00;98614.97;5075346;28;20225;-63
2021/08/13 05:21:54;;;;;;;11.00;9.23;;;;;;;19.08;100.00;98608.47;5075344;28;20215;-64
2021/08/13 05:24:20;;;;;;;10.27;9.13;;;;;;;19.05;100.00;98608.78;5075152;28;20210;-65
2021/08/13 05:26:47;;;;;;;12.17;10.63;;;;;;;19.08;100.00;98605.78;5074690;28;20668;-63
2021/08/13 05:29:15;;;;;;;12.17;10.90;;;;;;;19.10;100.00;98614.53;5074932;28;20589;-65
2021/08/13 05:31:41;;;;;;;13.30;10.23;;;;;;;19.29;100.00;98622.53;5074686;28;20687;-65
2021/08/13 05:34:08;;;;;;;12.30;11.07;;;;;;;19.32;100.00;98624.06;5075052;28;20237;-65
2021/08/13 05:36:34;;;;;;;12.50;11.20;;;;;;;19.37;100.00;98617.25;5073196;28;20234;-65
2021/08/13 05:39:01;;;;;;;13.13;10.63;;;;;;;19.36;100.00;98612.91;5073788;28;20213;-64
2021/08/13 05:41:27;;;;;;;12.57;10.83;;;;;;;19.38;100.00;98618.13;5074895;28;20207;-64
2021/08/13 05:43:53;;;;;;;12.20;10.90;;;;;;;19.43;100.00;98613.13;5075299;28;20572;-64
2021/08/13 05:46:21;;;;;;;13.23;11.50;;;;;;;19.46;100.00;98624.44;5074832;28;20219;-64
2021/08/13 05:48:48;;;;;;;12.00;10.23;;;;;;;19.61;100.00;98622.91;5074717;28;20218;-63
2021/08/13 05:51:14;;;;;;;11.70;10.50;;;;;;;20.06;100.00;98622.94;5074582;28;20681;-64
2021/08/13 05:53:41;;;;;;;13.20;10.00;;;;;;;20.74;100.00;98625.69;5074572;28;20576;-64
2021/08/13 05:56:07;;;;;;;14.07;10.70;;;;;;;21.44;100.00;98619.19;5074076;28;20731;-64
2021/08/13 05:58:33;;;;;;;14.10;10.70;;;;;;;22.05;100.00;98620.59;5074495;28;20207;-64
2021/08/13 06:01:02;;;;;;;12.40;10.17;;;;;;;22.58;96.26;98612.94;5074521;28;20577;-64
2021/08/13 06:03:29;;;;;;;11.40;10.20;;;;;;;23.04;92.61;98604.06;5072392;28;20681;-64
2021/08/13 06:05:56;;;;;;;10.87;9.77;;;;;;;23.51;88.81;98612.19;5074430;28;20570;-64
2021/08/13 06:08:22;;;;;;;11.10;9.47;;;;;;;23.87;85.40;98608.84;5074344;28;20236;-64
2021/08/13 06:10:49;;;;;;;11.43;9.13;;;;;;;24.36;82.99;98610.22;5074165;28;20211;-64
2021/08/13 06:13:16;;;;;;;12.07;9.53;;;;;;;24.48;83.19;98608.75;5073871;28;20211;-65
2021/08/13 06:15:42;;;;;;;13.13;9.37;;;;;;;24.70;82.65;98610.59;5073753;28;20227;-65
2021/08/13 06:18:09;;;;;;;11.37;9.50;;;;;;;25.02;80.36;98607.59;5074131;28;20216;-65
2021/08/13 06:20:37;;;;;;;11.37;9.97;;;;;;;25.24;78.68;98622.13;5073731;28;20665;-65
2021/08/13 06:23:03;;;;;;;11.03;9.83;;;;;;;25.52;77.36;98620.41;5073909;28;20214;-65
2021/08/13 06:25:30;;;;;;;10.40;9.23;;;;;;;25.94;75.25;98632.25;5073909;28;20220;-64
2021/08/13 06:27:57;;;;;;;12.13;9.63;;;;;;;26.12;73.28;98634.53;5072094;28;20214;-65
2021/08/13 06:30:24;;;;;;;11.37;10.07;;;;;;;25.98;74.07;98627.28;5073545;28;20215;-65
2021/08/13 06:32:51;;;;;;;10.93;9.47;;;;;;;26.09;73.74;98638.47;5073891;28;20217;-64
2021/08/13 06:35:18;;;;;;;13.70;10.77;;;;;;;25.96;73.26;98627.47;5073391;28;20235;-65
2021/08/13 06:37:47;;;;;;;11.40;9.63;;;;;;;25.57;74.51;98634.22;5073478;28;20218;-64
2021/08/13 06:40:14;;;;;;;9.93;8.93;;;;;;;25.12;77.02;98629.81;5073393;28;20208;-64
2021/08/13 06:42:41;;;;;;;9.70;8.77;;;;;;;24.73;80.39;98640.00;5073766;28;20211;-64
2021/08/13 06:45:09;;;;;;;10.13;9.00;;;;;;;24.45;82.54;98640.72;5073715;28;20208;-64
2021/08/13 06:47:35;;;;;;;9.80;8.80;;;;;;;24.32;83.87;98638.59;5073859;28;20213;-65
2021/08/13 06:50:02;;;;;;;10.70;9.60;;;;;;;24.31;84.92;98631.53;5073427;28;20207;-64
2021/08/13 06:52:28;;;;;;;10.07;8.93;;;;;;;24.42;85.45;98630.25;5073664;28;20220;-65
2021/08/13 06:54:56;;;;;;;10.03;9.03;;;;;;;24.67;84.25;98639.88;5071838;28;20222;-65
2021/08/13 06:57:22;;;;;;;13.43;10.63;;;;;;;24.92;80.68;98644.06;5073098;28;20235;-64
2021/08/13 06:59:49;;;;;;;10.30;9.17;;;;;;;25.14;79.27;98648.56;5073340;28;20213;-64
2021/08/13 07:02:15;;;;;;;12.27;9.90;;;;;;;25.27;78.77;98655.06;5071933;28;20557;-64
2021/08/13 07:04:42;;;;;;;9.93;8.93;;;;;;;25.43;79.11;98649.44;5070675;28;20695;-64
2021/08/13 07:07:08;;;;;;;10.67;9.37;;;;;;;25.64;79.42;98652.25;5073370;28;20587;-63
2021/08/13 07:09:35;;;;;;;9.60;8.60;;;;;;;25.74;78.03;98658.22;5073235;28;20687;-64
2021/08/13 07:12:03;;;;;;;9.90;8.70;;;;;;;25.77;77.57;98663.25;5070358;28;20211;-65
2021/08/13 07:14:30;;;;;;;12.50;10.10;;;;;;;25.59;76.11;98661.97;5072261;28;20212;-65
2021/08/13 07:16:56;;;;;;;13.70;10.30;;;;;;;25.28;78.12;98661.28;5073045;28;20242;-65
2021/08/13 07:19:22;;;;;;;12.27;10.13;;;;;;;25.06;79.89;98667.59;5072347;28;20214;-65
2021/08/13 07:21:49;;;;;;;12.93;10.03;;;;;;;24.91;80.53;98659.44;5072540;28;20211;-65
2021/08/13 07:24:19;;;;;;;13.17;10.13;;;;;;;24.80;81.36;98664.47;5073033;28;20212;-64
2021/08/13 07:26:45;;;;;;;14.47;10.87;;;;;;;24.72;81.37;98669.91;5073432;28;20287;-65
2021/08/13 07:29:13;;;;;;;13.70;10.47;;;;;;;24.62;82.63;98675.56;5073163;28;20214;-65
2021/08/13 07:31:40;;;;;;;14.13;9.77;;;;;;;24.64;83.12;98668.09;5073471;28;20211;-65
2021/08/13 07:34:06;;;;;;;13.53;10.67;;;;;;;24.71;81.98;98674.50;5072747;28;20242;-65
2021/08/13 07:36:32;;;;;;;11.40;10.03;;;;;;;24.81;81.22;98669.66;5069678;28;20227;-65
2021/08/13 07:38:59;;;;;;;16.23;10.20;;;;;;;24.91;78.98;98664.00;5071862;28;20580;-66
2021/08/13 07:41:25;;;;;;;11.43;9.77;;;;;;;24.82;80.02;98671.34;5072545;28;20692;-65
2021/08/13 07:43:52;;;;;;;12.30;8.90;;;;;;;24.89;81.02;98677.72;5072652;28;20692;-65
2021/08/13 07:46:20;;;;;;;11.27;8.97;;;;;;;25.06;80.61;98679.22;5071265;28;20289;-65
2021/08/13 07:48:46;;;;;;;11.30;10.10;;;;;;;25.15;80.69;98672.72;5072747;28;20212;-65
2021/08/13 07:51:13;;;;;;;11.60;9.50;;;;;;;25.22;80.36;98667.41;5072610;28;20208;-65
2021/08/13 07:53:39;;;;;;;11.93;10.10;;;;;;;25.25;79.49;98673.34;5072798;28;20214;-65
2021/08/13 07:56:06;;;;;;;11.87;9.23;;;;;;;25.26;79.64;98680.44;5072442;28;20227;-65
2021/08/13 07:58:33;;;;;;;13.17;10.00;;;;;;;25.31;77.88;98682.56;5072748;28;20671;-65
2021/08/13 08:00:59;;;;;;;10.77;9.60;;;;;;;25.29;77.39;98680.06;5072888;28;20557;-65
2021/08/13 08:03:27;;;;;;;13.43;9.93;;;;;;;25.34;76.81;98677.63;5075874;28;20210;-66
2021/08/13 08:05:54;;;;;;;11.20;9.40;;;;;;;25.42;76.20;98684.84;5076537;28;20249;-65
2021/08/13 08:08:20;;;;;;;10.97;9.13;;;;;;;25.52;75.71;98680.81;5076484;28;20203;-66
2021/08/13 08:10:47;;;;;;;10.40;9.37;;;;;;;25.57;74.79;98686.53;5076142;28;20215;-66
2021/08/13 08:13:14;;;;;;;9.70;8.70;;;;;;;25.70;73.64;98689.41;5075043;28;20580;-65
2021/08/13 08:15:40;;;;;;;10.17;9.07;;;;;;;25.74;73.34;98690.72;5076047;28;20208;-66
2021/08/13 08:18:07;;;;;;;11.37;9.20;;;;;;;25.84;73.24;98693.97;5076188;28;20691;-64
2021/08/13 08:20:36;;;;;;;11.43;9.77;;;;;;;25.99;72.47;98705.66;5076411;28;20211;-65
2021/08/13 08:23:02;;;;;;;11.77;9.63;;;;;;;26.14;72.31;98702.94;5076477;28;20215;-65
2021/08/13 08:25:29;;;;;;;11.80;10.23;;;;;;;26.31;70.22;98705.22;5076189;28;20207;-64
2021/08/13 08:27:55;;;;;;;10.43;8.97;;;;;;;26.19;70.73;98701.34;5075888;28;20290;-64
2021/08/13 08:30:22;;;;;;;10.10;8.93;;;;;;;26.15;71.65;98710.03;5075883;28;20703;-65
2021/08/13 08:32:49;;;;;;;9.43;8.20;;;;;;;26.24;69.95;98704.31;5076224;28;20211;-65
2021/08/13 08:35:15;;;;;;;10.00;9.00;;;;;;;26.49;70.30;98705.63;5076345;28;20232;-65
2021/08/13 08:37:54;;;;;;;8.90;8.10;;;;;;;26.64;69.44;98700.19;5073923;28;20676;-66
2021/08/13 08:40:25;;;;;;;10.33;8.07;;;;;;;26.85;69.09;98709.19;5075681;28;20214;-65
2021/08/13 08:42:54;;;;;;;11.63;8.70;;;;;;;26.85;65.74;98698.31;5075856;28;20212;-65
2021/08/13 08:45:20;;;;;;;9.27;8.35;;;;;;;26.73;67.01;98699.88;5075722;28;20261;-64
2021/08/13 08:47:48;;;;;;;9.60;8.43;;;;;;;26.73;66.46;98716.16;5075785;28;20314;-64
2021/08/13 08:50:15;;;;;;;9.02;8.13;;;;;;;26.76;67.38;98704.91;5075417;28;20696;-64
2021/08/13 08:52:41;;;;;;;8.63;7.82;;;;;;;26.79;66.60;98699.09;5075674;28;20582;-64
2021/08/13 08:55:12;;;;;;;9.07;7.80;;;;;;;26.88;67.29;98691.69;5075338;28;20673;-63
2021/08/13 08:57:40;;;;;;;10.57;8.70;;;;;;;26.98;65.68;98690.31;5075555;28;20641;-65
2021/08/13 09:00:08;;;;;;;10.00;8.10;;;;;;;26.94;66.68;98697.13;5075270;28;20688;-65
2021/08/13 09:02:35;;;;;;;10.00;8.10;;;;;;;26.99;66.25;98700.13;5075170;28;20234;-64
2021/08/13 09:05:01;;;;;;;9.82;7.90;;;;;;;27.02;66.29;98705.16;5070576;28;20234;-65
2021/08/13 09:07:28;;;;;;;11.45;8.45;;;;;;;27.07;65.59;98713.53;5074473;28;20549;-64
2021/08/13 09:09:55;;;;;;;9.57;7.63;;;;;;;27.07;65.09;98716.25;5075570;28;20212;-65
2021/08/13 09:12:23;;;;;;;8.88;8.05;;;;;;;27.12;65.08;98719.22;5075116;28;20214;-65
2021/08/13 09:14:49;;;;;;;9.20;7.88;;;;;;;27.27;64.15;98714.59;5075045;28;20218;-65
2021/08/13 09:17:15;;;;;;;9.23;8.32;;;;;;;27.39;64.53;98715.72;5074854;28;20722;-65
2021/08/13 09:19:44;;;;;;;10.00;8.15;;;;;;;27.36;64.92;98709.84;5071986;28;20572;-65
2021/08/13 09:22:13;;;;;;;8.83;7.73;;;;;;;27.53;64.08;98720.22;5074303;28;20215;-66
2021/08/13 09:24:42;;;;;;;9.35;8.35;;;;;;;27.58;63.93;98704.97;5073979;28;20211;-66
2021/08/13 09:27:16;;;;;;;9.20;7.95;;;;;;;27.59;63.55;98697.69;5073426;28;20211;-65
2021/08/13 09:30:13;;;;;;;9.13;8.23;;;;;;;27.63;64.06;98712.56;5070446;28;20211;-65
2021/08/13 09:32:42;;;;;;;9.98;7.88;;;;;;;27.70;62.64;98708.00;5073705;28;20539;-65
2021/08/13 09:35:09;;;;;;;9.18;7.80;;;;;;;27.83;62.11;98706.19;5053436;28;20232;-65
2021/08/13 09:37:37;;;;;;;9.32;7.80;;;;;;;27.77;61.53;98706.19;5057470;28;20289;-65
2021/08/13 09:40:05;;;;;;;9.02;8.10;;;;;;;27.75;61.13;98710.97;5074159;28;20212;-65
2021/08/13 09:42:36;;;;;;;9.07;8.18;;;;;;;27.70;61.93;98716.16;5074244;28;20207;-65
2021/08/13 09:45:05;;;;;;;8.20;7.40;;;;;;;27.85;61.09;98715.00;5074407;28;20222;-66
2021/08/13 09:47:42;;;;;;;8.00;7.18;;;;;;;28.05;60.14;98717.81;5074163;28;20203;-66
2021/08/13 09:50:10;;;;;;;8.57;7.68;;;;;;;28.29;59.43;98714.56;5074283;28;20211;-66
2021/08/13 09:52:36;;;;;;;8.50;7.25;;;;;;;28.37;57.58;98714.44;5074184;28;20568;-66
2021/08/13 09:55:13;;;;;;;8.32;6.78;;;;;;;28.35;56.99;98716.47;5074428;28;20211;-66
2021/08/13 09:57:42;;;;;;;8.20;6.90;;;;;;;28.32;57.33;98706.84;5071958;28;20266;-65
2021/08/13 10:00:10;;;;;;;8.35;7.55;;;;;;;28.32;58.90;98706.84;5073645;28;20215;-66
2021/08/13 10:02:39;;;;;;;9.02;7.22;;;;;;;28.56;57.85;98709.03;5073597;28;20203;-66
2021/08/13 10:05:21;;;;;;;7.43;6.72;;;;;;;28.68;56.40;98701.13;5073859;28;20214;-65
2021/08/13 10:07:49;;;;;;;8.43;7.15;;;;;;;28.74;57.03;98705.75;5059931;28;20588;-66
2021/08/13 10:10:16;;;;;;;9.35;7.38;;;;;;;28.81;56.37;98718.28;5069406;28;20704;-65
2021/08/13 10:12:44;;;;;;;9.48;7.70;;;;;;;28.81;56.60;98717.47;5057784;28;20211;-65
2021/08/13 10:15:11;;;;;;;9.93;7.97;;;;;;;28.87;56.06;98716.66;5065139;28;20212;-66
2021/08/13 10:17:38;;;;;;;7.45;6.75;;;;;;;28.90;55.51;98711.63;5065598;28;20708;-66
2021/08/13 10:20:06;;;;;;;8.20;7.07;;;;;;;28.83;55.75;98716.22;5057218;28;20209;-65
2021/08/13 10:22:35;;;;;;;10.07;6.95;;;;;;;28.76;56.05;98718.09;5073164;28;20787;-65
2021/08/13 10:25:01;;;;;;;8.00;7.25;;;;;;;28.76;55.06;98715.38;5070813;28;20219;-66
2021/08/13 10:27:28;;;;;;;8.15;7.35;;;;;;;28.88;57.17;98712.88;5073289;28;20222;-66
2021/08/13 10:29:55;;;;;;;8.75;7.47;;;;;;;28.89;56.03;98711.81;5073053;28;20208;-66
2021/08/13 10:32:22;;;;;;;8.45;7.40;;;;;;;28.95;56.49;98719.19;5073345;28;20207;-66
2021/08/13 10:34:49;;;;;;;8.93;7.97;;;;;;;28.91;56.70;98717.91;5072872;28;20612;-67
2021/08/13 10:37:16;;;;;;;8.70;7.50;;;;;;;28.83;57.03;98716.22;5073246;28;20235;-65
2021/08/13 10:39:47;;;;;;;8.93;7.82;;;;;;;28.92;57.19;98719.59;5073234;28;20207;-66
2021/08/13 10:42:18;;;;;;;9.52;7.82;;;;;;;28.85;57.92;98719.56;5073192;28;20215;-65
2021/08/13 10:44:49;;;;;;;9.07;7.80;;;;;;;29.01;58.57;98718.38;5073115;28;20211;-66
2021/08/13 10:47:20;;;;;;;9.00;7.88;;;;;;;29.04;58.48;98717.97;5073235;28;20585;-66
2021/08/13 10:49:48;;;;;;;8.73;7.80;;;;;;;29.04;58.48;98712.53;5071341;28;20578;-66
2021/08/13 10:52:15;;;;;;;9.43;8.23;;;;;;;29.11;58.22;98716.91;5073140;28;20230;-65
2021/08/13 10:54:45;;;;;;;9.07;8.18;;;;;;;29.25;57.35;98704.97;5072959;28;20211;-66
2021/08/13 10:57:12;;;;;;;11.23;8.50;;;;;;;29.11;58.44;98710.63;5073099;28;20229;-66
2021/08/13 10:59:54;;;;;;;8.93;8.00;;;;;;;29.18;57.91;98703.28;5072906;28;20572;-66
2021/08/13 11:02:21;;;;;;;9.30;8.10;;;;;;;29.06;57.42;98699.53;5072802;28;20277;-66
2021/08/13 11:04:48;;;;;;;9.23;8.20;;;;;;;29.08;57.60;98702.88;5072792;28;20207;-66
2021/08/13 11:07:35;;;;;;;9.35;7.82;;;;;;;29.06;58.44;98688.63;5072840;28;20556;-66
2021/08/13 11:10:03;;;;;;;8.43;7.63;;;;;;;29.29;57.76;98694.50;5071984;28;20211;-65
2021/08/13 11:12:30;;;;;;;9.38;7.88;;;;;;;29.38;58.85;98693.22;5056223;28;20212;-65
2021/08/13 11:14:56;;;;;;;10.30;8.20;;;;;;;29.51;57.98;98695.94;5066414;28;20565;-66
2021/08/13 11:17:41;;;;;;;8.55;7.57;;;;;;;29.48;57.02;98694.47;5061093;28;20231;-66
2021/08/13 11:20:10;;;;;;;9.00;7.63;;;;;;;29.63;56.96;98688.81;5055964;28;20685;-66
2021/08/13 11:22:37;;;;;;;8.45;7.63;;;;;;;29.64;56.85;98688.59;5066454;28;20212;-66
2021/08/13 11:25:08;;;;;;;10.35;8.07;;;;;;;29.75;55.95;98684.38;5063493;28;20212;-66